Terminal Aerodrome Forecast
Issued by NWS

Home | Current Version | Previous Version | Text Only | Print | Product List | Glossary On
Versions: 1 2 3 4 5 6 7 8 9 10 11 12 13 14 15 16 17 18 19 20 21 22 23 24 25
000
FTAK31 PAFA 260724 AAA
TAFAOT
TAF AMD
PAOT 260724Z 2607/2706 20005KT P6SM SCT025
     FM261100 21006KT P6SM BKN015 BKN020 OVC040
     FM261500 18016KT 3SM -SHSN BR BKN007 OVC015
     FM270000 13025G35KT 1SM -SN BR OVC007=

USA.gov is the U.S. government's official web portal to all federal, state and local government web resources and services.